Apia Wharf, Samoa

11:52 AM WSST on August 31, 2016 (GMT +1300)
Faleolo International | | Change Station

Elev 16 ft 13.83 °S, 172.01 °W | Updated 52 minutes ago

Scattered Clouds
Scattered Clouds
86 °F
Feels Like 99 °F
N
14
Wind Variable Wind from ENE

Today
High -- | Low -- °F
--% Chance of Precip.
Yesterday
High -- | Low -- °F
Precip. -- in
Pressure 29.95 in
Visibility 6.2 miles
Clouds Scattered Clouds 2200 ft
Scattered Clouds 16000 ft
Heat Index 99 °F
Dew Point 79 °F
Humidity 79%
Rainfall 0.00 in
Snow Depth Not available.
6:31 AM 6:22 PM
Waning Crescent, 2% visible
METAR NSFA 302200Z 06012KT 9999 SCT022 SCT160 30/26 Q1014
Pressure 29.95 in
Visibility 6.2 miles
Clouds Scattered Clouds 2200 ft
Scattered Clouds 16000 ft
Heat Index 99 °F
Dew Point 79 °F
Humidity 79%
Rainfall 0.00 in
Snow Depth Not available.
6:31 AM 6:22 PM
Waning Crescent, 2% visible
METAR NSFA 302200Z 06012KT 9999 SCT022 SCT160 30/26 Q1014

10-Day Weather Forecast

No radar image for this location.
×

Almanac

Astronomy

Aug. 31, 2016 Rise Set
Actual Time
Civil Twilight
Nautical Twilight
Astronomical Twilight
Moon
Length of Visible Light
Length of Day
Tomorrow will be .
, % of the Moon is Illuminated

Today's Extremes

Country Highs Country Lows

Community

WunderPhotos

Upload Photos

1,935,917 photos uploaded!

WunderBlog® & News

Nearby

Air Quality

  Air Quality AQ Index Pollutant
Not available.

Snow Depth

Station Depth Elevation

Earthquake Activity

City Distance Mag. Time & Date
Minimum magnitude displayed is 2.5.

Coastal Water Temperatures

Place Temperature

Stations

Nearby Weather Stations

Station Location Temp. Windchill Dew Point Humidity Wind Precip. Elev Updated Type